Terminal Aerodrome Forecast
Issued by NWS Billings, MT

Home | Current Version | Previous Version | Text Only | Print | Product List | Glossary On
Versions: 1 2 3 4 5 6 7 8 9 10 11 12 13 14
000
FTUS45 KBYZ 291127
TAFMLS
TAF
KMLS 291127Z 2912/3012 14010G16KT P6SM SKC WS015/15040KT
     FM291500 14012KT P6SM SCT200
     FM300000 12008KT P6SM SCT100 BKN200=

USA.gov is the U.S. government's official web portal to all federal, state and local government web resources and services.